Time;durP1;ratioP1;P1;durP2;ratioP2;P2;SDS_P1;SDS_P2;PMS_P1;PMS_P2;Temp;Humidity;BMP_temperature;BMP_pressure;BME280_temperature;BME280_humidity;BME280_pressure;Samples;Min_cycle;Max_cycle;Signal;HPM_P1;HPM_P2
2022/08/30 00:03:02;;;;;;;6.17;5.13;;;17.20;1.00;;;;;;5085428;28;20430;-58
2022/08/30 00:05:28;;;;;;;10.73;5.80;;;17.20;1.00;;;;;;5087257;28;20480;-58
2022/08/30 00:07:54;;;;;;;6.33;4.97;;;17.20;1.00;;;;;;5088553;28;20445;-59
2022/08/30 00:10:20;;;;;;;8.50;5.73;;;17.10;1.00;;;;;;5089119;28;20942;-59
2022/08/30 00:12:47;;;;;;;6.77;5.83;;;17.10;1.00;;;;;;5085852;28;20453;-58
2022/08/30 00:15:14;;;;;;;6.87;4.90;;;17.20;1.00;;;;;;5089972;28;20927;-59
2022/08/30 00:17:40;;;;;;;5.53;4.93;;;17.20;1.00;;;;;;5088338;28;20452;-58
2022/08/30 00:20:12;;;;;;;7.10;4.87;;;17.20;1.00;;;;;;5089058;28;20583;-58
2022/08/30 00:22:38;;;;;;;6.90;4.90;;;17.60;1.00;;;;;;5088669;28;20568;-58
2022/08/30 00:25:04;;;;;;;8.43;5.87;;;17.30;1.00;;;;;;5090334;28;20508;-58
2022/08/30 00:27:30;;;;;;;5.80;5.30;;;17.30;1.00;;;;;;5087687;28;20217;-58
2022/08/30 00:29:56;;;;;;;8.03;5.87;;;17.20;1.00;;;;;;5088810;28;20718;-58
2022/08/30 00:32:22;;;;;;;11.13;5.40;;;17.20;1.00;;;;;;5070828;28;20206;-58
2022/08/30 00:34:49;;;;;;;8.77;5.07;;;17.10;1.00;;;;;;5083022;28;20614;-58
2022/08/30 00:37:15;;;;;;;8.80;5.70;;;17.00;1.00;;;;;;5088510;28;20419;-59
2022/08/30 00:39:41;;;;;;;8.13;5.93;;;17.00;1.00;;;;;;5081963;28;20450;-59
2022/08/30 00:42:08;;;;;;;6.30;5.50;;;17.00;1.00;;;;;;5081566;28;20190;-59
2022/08/30 00:44:34;;;;;;;8.80;6.10;;;17.00;1.00;;;;;;5087787;28;20501;-57
2022/08/30 00:46:59;;;;;;;8.87;5.67;;;17.00;1.00;;;;;;5088439;28;20430;-59
2022/08/30 00:49:25;;;;;;;6.20;5.53;;;17.10;1.00;;;;;;5086805;28;20961;-59
2022/08/30 00:51:52;;;;;;;8.70;5.63;;;17.00;1.00;;;;;;5088648;28;20215;-59
2022/08/30 00:54:18;;;;;;;8.47;6.10;;;17.00;1.00;;;;;;5089440;28;20686;-57
2022/08/30 00:56:47;;;;;;;6.10;5.23;;;17.00;1.00;;;;;;5087614;28;20462;-58
2022/08/30 00:59:13;;;;;;;6.77;5.40;;;16.90;1.00;;;;;;5087178;28;20452;-59
2022/08/30 01:01:38;;;;;;;7.80;5.47;;;16.90;1.00;;;;;;5088984;28;20505;-54
2022/08/30 01:04:07;;;;;;;7.73;5.23;;;16.90;1.00;;;;;;5069119;28;20578;-56
2022/08/30 01:06:33;;;;;;;6.33;5.73;;;16.90;1.00;;;;;;5085923;28;20314;-55
2022/08/30 01:09:01;;;;;;;6.70;5.70;;;16.90;1.00;;;;;;5087799;28;20435;-54
2022/08/30 01:11:28;;;;;;;7.53;5.53;;;16.80;1.00;;;;;;5087309;28;20469;-55
2022/08/30 01:13:55;;;;;;;7.33;5.33;;;16.80;1.00;;;;;;5088123;28;20452;-53
2022/08/30 01:16:21;;;;;;;6.50;5.30;;;16.80;1.00;;;;;;5087077;28;20448;-54
2022/08/30 01:18:49;;;;;;;9.73;6.53;;;16.80;1.00;;;;;;5086501;28;20408;-53
2022/08/30 01:21:40;;;;;;;8.50;5.77;;;16.70;1.00;;;;;;5087413;28;20484;-54
2022/08/30 01:24:07;;;;;;;6.23;5.47;;;16.60;1.00;;;;;;5070262;28;20411;-55
2022/08/30 01:26:34;;;;;;;6.37;5.50;;;16.60;1.00;;;;;;5086658;28;20535;-54
2022/08/30 01:29:06;;;;;;;6.10;5.40;;;16.60;1.00;;;;;;5087048;28;20415;-53
2022/08/30 01:31:35;;;;;;;9.57;6.27;;;16.60;1.00;;;;;;5085143;28;20439;-54
2022/08/30 01:34:04;;;;;;;10.27;5.00;;;16.60;1.00;;;;;;5089577;28;20412;-54
2022/08/30 01:36:30;;;;;;;7.30;6.10;;;16.50;1.00;;;;;;5087445;28;20447;-55
2022/08/30 01:38:57;;;;;;;7.47;5.73;;;16.60;1.00;;;;;;5086786;28;20740;-54
2022/08/30 01:41:27;;;;;;;9.20;5.97;;;16.50;1.00;;;;;;5086176;28;20547;-54
2022/08/30 01:43:55;;;;;;;5.90;5.30;;;16.60;1.00;;;;;;5087822;28;20480;-54
2022/08/30 01:46:23;;;;;;;8.60;6.03;;;16.40;1.00;;;;;;5086870;28;20449;-54
2022/08/30 01:48:51;;;;;;;8.30;6.00;;;16.40;1.00;;;;;;5088166;28;20444;-54
2022/08/30 01:51:16;;;;;;;6.83;6.13;;;16.40;1.00;;;;;;5085844;28;20846;-54
2022/08/30 01:53:43;;;;;;;10.23;7.43;;;16.40;1.00;;;;;;5088043;28;20422;-54
2022/08/30 01:56:16;;;;;;;8.40;5.83;;;16.40;1.00;;;;;;5087005;28;20265;-56
2022/08/30 01:58:42;;;;;;;6.87;6.17;;;16.40;1.00;;;;;;5086513;28;20447;-54
2022/08/30 02:01:13;;;;;;;9.57;5.93;;;16.40;1.00;;;;;;5086832;28;20423;-54
2022/08/30 02:03:40;;;;;;;6.57;5.83;;;16.40;1.00;;;;;;5083676;28;20423;-55
2022/08/30 02:06:16;;;;;;;8.50;5.33;;;16.30;1.00;;;;;;5089007;28;20500;-54
2022/08/30 02:08:42;;;;;;;6.47;5.57;;;16.40;1.00;;;;;;5090900;28;20422;-53
2022/08/30 02:11:14;;;;;;;6.67;6.07;;;16.30;1.00;;;;;;5090742;28;20537;-54
2022/08/30 02:13:42;;;;;;;6.57;5.87;;;16.40;1.00;;;;;;5089175;28;20449;-54
2022/08/30 02:16:16;;;;;;;8.00;5.80;;;16.30;1.00;;;;;;5091657;28;20546;-55
2022/08/30 02:18:42;;;;;;;9.10;5.83;;;16.20;1.00;;;;;;5089126;28;20440;-54
2022/08/30 02:21:14;;;;;;;7.80;6.27;;;16.20;1.00;;;;;;5091807;28;20466;-55
2022/08/30 02:23:41;;;;;;;6.60;5.70;;;16.10;1.00;;;;;;5089999;28;20553;-53
2022/08/30 02:26:14;;;;;;;6.63;5.10;;;16.20;1.00;;;;;;5089271;28;20416;-55
2022/08/30 02:28:40;;;;;;;6.60;5.40;;;16.10;1.00;;;;;;5090353;28;20508;-55
2022/08/30 02:31:15;;;;;;;6.17;5.57;;;16.20;1.00;;;;;;5090056;28;20438;-56
2022/08/30 02:33:41;;;;;;;8.07;5.83;;;16.20;1.00;;;;;;5080154;28;20178;-55
2022/08/30 02:36:13;;;;;;;6.00;5.17;;;16.10;1.00;;;;;;5085693;28;20407;-55
2022/08/30 02:38:38;;;;;;;6.67;5.97;;;16.10;1.00;;;;;;5090698;28;20221;-54
2022/08/30 02:41:13;;;;;;;7.87;5.53;;;16.10;1.00;;;;;;5090047;28;20984;-54
2022/08/30 02:43:40;;;;;;;6.80;5.43;;;16.10;1.00;;;;;;5089964;28;20209;-55
2022/08/30 02:46:12;;;;;;;6.57;4.93;;;16.00;1.00;;;;;;5089952;28;20441;-53
2022/08/30 02:48:38;;;;;;;7.33;6.43;;;15.90;1.00;;;;;;5089396;28;20444;-54
2022/08/30 02:51:13;;;;;;;10.43;6.20;;;15.90;1.00;;;;;;5090758;28;20559;-58
2022/08/30 02:53:40;;;;;;;6.53;4.97;;;15.80;1.00;;;;;;5087988;28;20182;-59
2022/08/30 02:56:13;;;;;;;8.30;5.70;;;15.90;1.00;;;;;;5089499;28;20412;-58
2022/08/30 02:58:41;;;;;;;5.93;5.33;;;15.90;1.00;;;;;;5088789;28;20490;-54
2022/08/30 03:01:14;;;;;;;8.30;5.17;;;15.90;1.00;;;;;;5089932;28;21082;-53
2022/08/30 03:03:41;;;;;;;6.40;5.80;;;15.90;1.00;;;;;;5087988;28;20510;-53
2022/08/30 03:06:13;;;;;;;8.23;6.20;;;16.00;1.00;;;;;;5090433;28;20505;-54
2022/08/30 03:08:39;;;;;;;6.90;6.10;;;16.00;1.00;;;;;;5088317;28;20754;-55
2022/08/30 03:11:28;;;;;;;6.53;5.83;;;15.90;1.00;;;;;;5070398;28;20451;-54
2022/08/30 03:13:53;;;;;;;6.23;5.63;;;15.90;1.00;;;;;;5075677;28;20197;-59
2022/08/30 03:16:20;;;;;;;9.80;6.03;;;15.80;1.00;;;;;;5088456;28;20512;-60
2022/08/30 03:18:46;;;;;;;7.03;6.33;;;15.70;1.00;;;;;;5070663;28;20186;-59
2022/08/30 03:21:13;;;;;;;6.87;6.20;;;15.70;1.00;;;;;;5090194;28;20426;-59
2022/08/30 03:23:40;;;;;;;6.63;5.87;;;15.80;1.00;;;;;;5089317;28;20274;-59
2022/08/30 03:26:13;;;;;;;7.97;5.20;;;15.80;1.00;;;;;;5091397;28;20407;-58
2022/08/30 03:28:40;;;;;;;7.53;5.33;;;15.70;1.00;;;;;;5085660;28;20962;-58
2022/08/30 03:31:12;;;;;;;5.83;5.33;;;15.70;1.00;;;;;;5087706;28;20454;-59
2022/08/30 03:33:39;;;;;;;7.57;5.50;;;15.80;1.00;;;;;;5089594;28;20506;-58
2022/08/30 03:36:15;;;;;;;9.70;6.13;;;15.70;1.00;;;;;;5070653;28;20444;-59
2022/08/30 03:38:41;;;;;;;6.70;5.80;;;15.70;1.00;;;;;;5087138;28;21754;-59
2022/08/30 03:41:16;;;;;;;5.80;5.30;;;15.70;1.00;;;;;;5089969;28;20476;-59
2022/08/30 03:43:42;;;;;;;7.10;5.53;;;15.70;1.00;;;;;;5088750;28;20186;-59
2022/08/30 03:46:12;;;;;;;7.47;5.80;;;15.70;1.00;;;;;;5084312;28;20440;-58
2022/08/30 03:48:37;;;;;;;8.10;5.47;;;15.60;1.00;;;;;;5089864;28;20419;-60
2022/08/30 03:51:03;;;;;;;6.30;5.70;;;15.60;1.00;;;;;;5087937;28;20495;-59
2022/08/30 03:53:29;;;;;;;6.80;5.80;;;15.60;1.00;;;;;;5088311;28;20190;-59
2022/08/30 03:55:54;;;;;;;7.40;5.97;;;15.60;1.00;;;;;;5085910;28;20191;-60
2022/08/30 03:58:20;;;;;;;11.97;6.27;;;15.60;1.00;;;;;;5088823;28;20275;-58
2022/08/30 04:00:46;;;;;;;7.40;5.93;;;15.60;1.00;;;;;;5087750;28;20664;-58
2022/08/30 04:03:12;;;;;;;6.40;5.80;;;15.60;1.00;;;;;;5088028;28;20198;-58
2022/08/30 04:05:37;;;;;;;7.10;5.97;;;15.60;1.00;;;;;;5088392;28;20263;-59
2022/08/30 04:08:03;;;;;;;7.10;6.40;;;15.60;1.00;;;;;;5088210;28;20509;-59
2022/08/30 04:10:29;;;;;;;5.63;5.07;;;15.50;1.00;;;;;;5088037;28;20714;-61
2022/08/30 04:12:55;;;;;;;7.70;6.47;;;15.40;1.00;;;;;;5087893;28;20182;-57
2022/08/30 04:15:21;;;;;;;7.80;5.83;;;15.40;1.00;;;;;;5089624;28;20179;-57
2022/08/30 04:17:47;;;;;;;9.33;6.37;;;15.40;1.00;;;;;;5089626;28;20882;-57
2022/08/30 04:20:13;;;;;;;8.30;6.30;;;15.50;1.00;;;;;;5088231;28;20178;-57
2022/08/30 04:22:38;;;;;;;9.43;6.20;;;15.40;1.00;;;;;;5087972;28;20947;-57
2022/08/30 04:25:06;;;;;;;6.80;5.43;;;15.40;1.00;;;;;;5070982;28;20243;-57
2022/08/30 04:27:32;;;;;;;6.50;5.83;;;15.50;1.00;;;;;;5087541;28;20197;-59
2022/08/30 04:29:58;;;;;;;8.07;6.43;;;15.40;1.00;;;;;;5069600;28;20781;-57
2022/08/30 04:32:24;;;;;;;7.13;5.77;;;15.40;1.00;;;;;;5087397;28;20186;-56
2022/08/30 04:34:54;;;;;;;8.10;6.40;;;15.40;1.00;;;;;;5088686;28;20419;-57
2022/08/30 04:37:19;;;;;;;7.10;5.83;;;15.50;1.00;;;;;;5089281;28;20175;-57
2022/08/30 04:39:45;;;;;;;8.33;6.00;;;15.50;1.00;;;;;;5087472;28;20495;-55
2022/08/30 04:42:11;;;;;;;8.13;6.33;;;15.50;1.00;;;;;;5086847;28;20240;-56
2022/08/30 04:44:36;;;;;;;6.70;5.63;;;15.60;1.00;;;;;;5089987;28;20414;-57
2022/08/30 04:47:02;;;;;;;10.50;6.30;;;15.60;1.00;;;;;;5087145;28;20698;-57
2022/08/30 04:49:28;;;;;;;6.73;6.13;;;15.60;1.00;;;;;;5087525;28;20187;-57
2022/08/30 04:51:54;;;;;;;7.57;5.90;;;15.70;1.00;;;;;;5087020;28;20235;-56
2022/08/30 04:54:20;;;;;;;7.27;6.57;;;15.70;1.00;;;;;;5085923;28;20191;-56
2022/08/30 04:56:46;;;;;;;9.13;5.63;;;15.90;1.00;;;;;;5088345;28;20964;-56
2022/08/30 04:59:12;;;;;;;6.53;5.93;;;15.90;1.00;;;;;;5089711;28;20455;-55
2022/08/30 05:01:37;;;;;;;6.60;6.00;;;15.80;1.00;;;;;;5088284;28;20664;-56
2022/08/30 05:04:03;;;;;;;8.10;5.43;;;15.80;1.00;;;;;;5088942;28;20464;-56
2022/08/30 05:06:30;;;;;;;6.63;6.03;;;15.90;1.00;;;;;;5089703;28;20647;-58
2022/08/30 05:08:55;;;;;;;7.93;5.33;;;15.90;1.00;;;;;;5088060;28;20285;-57
2022/08/30 05:11:21;;;;;;;7.30;6.20;;;15.90;1.00;;;;;;5069335;28;21025;-57
2022/08/30 05:13:48;;;;;;;8.03;6.67;;;16.00;1.00;;;;;;5086166;28;20472;-55
2022/08/30 05:16:16;;;;;;;8.80;6.67;;;16.00;1.00;;;;;;5087415;28;20454;-57
2022/08/30 05:18:43;;;;;;;7.13;6.30;;;16.00;1.00;;;;;;5087359;28;20448;-56
2022/08/30 05:21:20;;;;;;;7.70;6.10;;;16.10;1.00;;;;;;5086818;28;20444;-57
2022/08/30 05:23:46;;;;;;;7.30;6.23;;;16.00;1.00;;;;;;5084875;28;20483;-57
2022/08/30 05:26:26;;;;;;;6.77;5.67;;;16.00;1.00;;;;;;5087396;28;20502;-57
2022/08/30 05:28:52;;;;;;;7.40;6.67;;;16.00;1.00;;;;;;5089336;28;20440;-56
2022/08/30 05:31:19;;;;;;;8.47;6.20;;;16.10;1.00;;;;;;5086643;28;20583;-56
2022/08/30 05:33:46;;;;;;;8.33;5.70;;;16.30;1.00;;;;;;5089095;28;20573;-57
2022/08/30 05:36:13;;;;;;;7.37;6.20;;;16.40;1.00;;;;;;5087915;28;20444;-57
2022/08/30 05:38:39;;;;;;;9.27;5.63;;;16.40;1.00;;;;;;5088697;28;20719;-55
2022/08/30 05:41:23;;;;;;;8.07;5.60;;;16.50;1.00;;;;;;5090230;28;20450;-56
2022/08/30 05:43:55;;;;;;;7.17;5.53;;;16.50;1.00;;;;;;5091798;28;20656;-56
2022/08/30 05:46:21;;;;;;;7.37;6.27;;;16.60;1.00;;;;;;5092229;28;20459;-57
2022/08/30 05:48:47;;;;;;;7.63;5.60;;;16.60;1.00;;;;;;5092075;28;20423;-57
2022/08/30 05:51:20;;;;;;;6.87;5.80;;;16.80;1.00;;;;;;5091852;28;20296;-57
2022/08/30 05:53:46;;;;;;;7.17;5.97;;;16.90;1.00;;;;;;5093035;28;20422;-56
2022/08/30 05:56:15;;;;;;;6.70;6.00;;;17.00;1.00;;;;;;5093090;28;20434;-57
2022/08/30 05:58:41;;;;;;;9.30;6.17;;;17.20;1.00;;;;;;5091954;28;20753;-56
2022/08/30 06:01:30;;;;;;;7.93;5.77;;;17.20;1.00;;;;;;5091767;28;20451;-57
2022/08/30 06:03:59;;;;;;;7.53;6.70;;;17.40;1.00;;;;;;5091953;28;20407;-56
2022/08/30 06:06:24;;;;;;;6.40;5.27;;;17.50;1.00;;;;;;5090546;28;20464;-57
2022/08/30 06:08:50;;;;;;;7.50;6.27;;;17.50;1.00;;;;;;5091334;28;20423;-57
2022/08/30 06:11:18;;;;;;;8.63;5.93;;;17.50;1.00;;;;;;5090737;28;20205;-57
2022/08/30 06:13:44;;;;;;;7.17;6.47;;;17.70;1.00;;;;;;5089877;28;20190;-57
2022/08/30 06:16:15;;;;;;;6.63;5.87;;;17.90;1.00;;;;;;5090523;28;20437;-56
2022/08/30 06:18:41;;;;;;;6.40;5.80;;;17.90;1.00;;;;;;5090831;28;20455;-57
2022/08/30 06:21:25;;;;;;;8.10;6.50;;;17.90;1.00;;;;;;5091742;28;20436;-55
2022/08/30 06:23:51;;;;;;;7.00;6.30;;;18.00;1.00;;;;;;5092312;28;20640;-58
2022/08/30 06:26:18;;;;;;;7.53;6.10;;;18.10;1.00;;;;;;5074090;28;20458;-55
2022/08/30 06:28:44;;;;;;;7.37;6.53;;;18.20;1.00;;;;;;5088514;28;20789;-56
2022/08/30 06:31:18;;;;;;;7.00;6.30;;;18.40;1.00;;;;;;5092108;28;20813;-57
2022/08/30 06:33:44;;;;;;;9.57;6.20;;;18.30;1.00;;;;;;5090796;28;20935;-58
2022/08/30 06:36:16;;;;;;;8.80;6.27;;;18.40;1.00;;;;;;5091946;28;20417;-57
2022/08/30 06:38:42;;;;;;;7.90;6.67;;;18.50;1.00;;;;;;5086122;28;20469;-57
2022/08/30 06:41:17;;;;;;;15.47;6.63;;;18.60;1.00;;;;;;5088047;28;20476;-56
2022/08/30 06:43:43;;;;;;;7.00;6.30;;;18.60;1.00;;;;;;5091585;28;20481;-55
2022/08/30 06:46:25;;;;;;;10.00;6.20;;;18.80;1.00;;;;;;5090912;28;20441;-57
2022/08/30 06:48:51;;;;;;;6.77;6.07;;;18.90;1.00;;;;;;5091966;28;20187;-56
2022/08/30 06:51:21;;;;;;;8.60;6.60;;;19.00;1.00;;;;;;5088100;28;20472;-56
2022/08/30 06:53:48;;;;;;;6.77;6.00;;;19.20;1.00;;;;;;5089175;28;21035;-57
2022/08/30 06:56:15;;;;;;;8.70;6.13;;;19.30;1.00;;;;;;5091427;28;20493;-58
2022/08/30 06:58:40;;;;;;;8.00;5.90;;;19.30;1.00;;;;;;5090891;28;20532;-57
2022/08/30 07:01:21;;;;;;;6.70;5.90;;;19.30;1.00;;;;;;5091910;28;20502;-57
2022/08/30 07:03:46;;;;;;;5.47;4.87;;;19.40;1.00;;;;;;5087664;28;20193;-56
2022/08/30 07:06:13;;;;;;;7.13;5.50;;;19.50;1.00;;;;;;5091539;28;20701;-56
2022/08/30 07:08:39;;;;;;;11.27;6.00;;;19.60;1.00;;;;;;5091829;28;20186;-59
2022/08/30 07:11:13;;;;;;;7.47;5.97;;;19.80;1.00;;;;;;5091664;28;20506;-57
2022/08/30 07:13:39;;;;;;;6.03;5.40;;;20.00;1.00;;;;;;5091428;28;20520;-57
2022/08/30 07:16:13;;;;;;;8.07;6.40;;;20.10;1.00;;;;;;5086194;28;20490;-56
2022/08/30 07:18:55;;;;;;;6.93;6.00;;;20.20;1.00;;;;;;5090078;28;20272;-56
2022/08/30 07:21:33;;;;;;;6.70;5.67;;;20.40;1.00;;;;;;5085577;28;20451;-55
2022/08/30 07:23:59;;;;;;;7.47;5.70;;;20.40;1.00;;;;;;5091090;28;20423;-56
2022/08/30 07:26:33;;;;;;;6.53;5.93;;;20.40;1.00;;;;;;5091745;28;20490;-58
2022/08/30 07:28:59;;;;;;;7.00;6.30;;;20.50;1.00;;;;;;5091208;28;20433;-58
2022/08/30 07:31:25;;;;;;;6.60;5.90;;;20.70;1.00;;;;;;5072957;28;20460;-57
2022/08/30 07:33:51;;;;;;;7.23;5.27;;;20.80;1.00;;;;;;5090139;28;20465;-56
2022/08/30 07:36:17;;;;;;;6.73;6.10;;;20.90;1.00;;;;;;5087606;28;20277;-57
2022/08/30 07:38:45;;;;;;;5.40;4.90;;;21.00;1.00;;;;;;5091326;28;20714;-56
2022/08/30 07:41:33;;;;;;;5.90;5.40;;;21.30;1.00;;;;;;5073370;28;20507;-57
2022/08/30 07:43:59;;;;;;;6.10;5.23;;;21.40;1.00;;;;;;5090489;28;20411;-57
2022/08/30 07:46:26;;;;;;;5.77;4.63;;;21.50;1.00;;;;;;5090590;28;20471;-55
2022/08/30 07:48:54;;;;;;;8.53;5.60;;;21.70;1.00;;;;;;5090494;28;20423;-58
2022/08/30 07:51:23;;;;;;;6.73;5.20;;;21.90;1.00;;;;;;5088346;28;20443;-56
2022/08/30 07:53:48;;;;;;;5.63;5.13;;;22.10;1.00;;;;;;5090727;28;20479;-56
2022/08/30 07:56:15;;;;;;;7.30;5.00;;;22.10;1.00;;;;;;5090516;28;20825;-57
2022/08/30 07:58:41;;;;;;;5.50;4.73;;;22.20;1.00;;;;;;5090501;28;20844;-56
2022/08/30 08:01:13;;;;;;;7.87;5.73;;;22.30;1.00;;;;;;5089699;28;20425;-59
2022/08/30 08:03:41;;;;;;;7.07;5.60;;;22.40;1.00;;;;;;5089648;28;20908;-58
2022/08/30 08:06:15;;;;;;;7.63;5.00;;;22.50;1.00;;;;;;5085954;28;20447;-58
2022/08/30 08:08:42;;;;;;;5.20;4.80;;;22.60;1.00;;;;;;5090645;28;20472;-57
2022/08/30 08:11:18;;;;;;;6.57;5.63;;;22.80;1.00;;;;;;5090245;28;20841;-57
2022/08/30 08:13:45;;;;;;;6.93;4.97;;;23.00;1.00;;;;;;5088046;28;20411;-55
2022/08/30 08:16:15;;;;;;;5.10;4.57;;;23.10;1.00;;;;;;5090045;28;20433;-57
2022/08/30 08:18:42;;;;;;;5.90;5.30;;;23.30;1.00;;;;;;5087267;28;20451;-57
2022/08/30 08:21:11;;;;;;;6.87;4.90;;;23.40;1.00;;;;;;5089165;28;20960;-57
2022/08/30 08:23:37;;;;;;;7.80;5.93;;;23.40;1.00;;;;;;5089282;28;20445;-57
2022/08/30 08:26:03;;;;;;;6.00;4.93;;;23.70;1.00;;;;;;5067660;28;20481;-57
2022/08/30 08:28:29;;;;;;;5.40;4.90;;;24.00;1.00;;;;;;5088145;28;20194;-56
2022/08/30 08:30:55;;;;;;;6.47;5.60;;;24.10;1.00;;;;;;5088738;28;20245;-56
2022/08/30 08:33:22;;;;;;;7.10;5.57;;;24.00;1.00;;;;;;5087580;28;20415;-56
2022/08/30 08:35:48;;;;;;;5.60;4.83;;;24.00;1.00;;;;;;5088191;28;21290;-57
2022/08/30 08:38:14;;;;;;;5.93;5.30;;;24.00;1.00;;;;;;5089051;28;20441;-57
2022/08/30 08:40:50;;;;;;;8.87;5.00;;;24.20;1.00;;;;;;5087719;28;20692;-56
2022/08/30 08:43:19;;;;;;;6.40;5.60;;;24.30;1.00;;;;;;5088207;28;20525;-56
2022/08/30 08:46:00;;;;;;;5.20;4.73;;;24.40;1.00;;;;;;5088225;28;20483;-58
2022/08/30 08:48:37;;;;;;;5.73;5.20;;;24.60;1.00;;;;;;5089095;28;20429;-55
2022/08/30 08:54:10;;;;;;;6.40;5.10;;;25.00;1.00;;;;;;5088553;28;20443;-57
2022/08/30 08:56:36;;;;;;;5.40;4.93;;;25.10;1.00;;;;;;5089305;28;20763;-56
2022/08/30 08:59:05;;;;;;;8.17;4.87;;;25.10;1.00;;;;;;5086276;28;20419;-56
2022/08/30 09:01:32;;;;;;;5.30;4.80;;;25.30;1.00;;;;;;5087967;28;20452;-56
2022/08/30 09:04:01;;;;;;;5.00;4.57;;;25.50;1.00;;;;;;5085449;28;21002;-56
2022/08/30 09:06:57;;;;;;;6.80;4.90;;;25.50;1.00;;;;;;5088623;28;20449;-56
2022/08/30 09:09:29;;;;;;;6.20;5.40;;;25.60;1.00;;;;;;5088414;28;20477;-57
2022/08/30 09:11:55;;;;;;;5.13;4.53;;;25.70;1.00;;;;;;5089896;28;20463;-56
2022/08/30 09:14:33;;;;;;;7.90;4.90;;;25.70;1.00;;;;;;5090250;28;20459;-57
2022/08/30 09:17:01;;;;;;;4.70;4.30;;;25.80;1.00;;;;;;5093746;28;20513;-57
2022/08/30 09:19:31;;;;;;;4.43;4.07;;;25.90;1.00;;;;;;5093606;28;20740;-56
2022/08/30 09:22:19;;;;;;;5.40;4.90;;;25.90;1.00;;;;;;5093614;28;20447;-57
2022/08/30 09:24:50;;;;;;;6.50;4.60;;;26.00;1.00;;;;;;5093280;28;20559;-56
2022/08/30 09:27:20;;;;;;;6.73;4.80;;;26.00;1.00;;;;;;5093354;28;20968;-56
2022/08/30 09:30:03;;;;;;;5.80;5.03;;;26.40;1.00;;;;;;5093850;28;20444;-57
2022/08/30 09:32:58;;;;;;;5.17;4.60;;;26.60;1.00;;;;;;5075616;28;20495;-56
2022/08/30 09:35:33;;;;;;;6.13;5.40;;;26.80;1.00;;;;;;5093964;28;20433;-57
2022/08/30 09:38:11;;;;;;;5.70;4.83;;;26.80;1.00;;;;;;5093403;28;20555;-56
2022/08/30 09:40:49;;;;;;;7.83;6.00;;;26.50;1.00;;;;;;5093562;28;20476;-55
2022/08/30 09:43:22;;;;;;;7.30;4.93;;;26.50;1.00;;;;;;5088977;28;20843;-60
2022/08/30 09:46:01;;;;;;;5.87;5.23;;;26.50;1.00;;;;;;5093465;28;20433;-57
2022/08/30 09:48:39;;;;;;;5.07;4.30;;;26.40;1.00;;;;;;5093085;28;20997;-56
2022/08/30 09:51:13;;;;;;;7.30;4.93;;;26.60;1.00;;;;;;5093280;28;20460;-56
2022/08/30 09:53:46;;;;;;;5.93;5.20;;;26.90;1.00;;;;;;5093152;28;20451;-56
2022/08/30 09:56:17;;;;;;;5.47;4.97;;;27.20;1.00;;;;;;5091518;28;20459;-57
2022/08/30 09:59:04;;;;;;;4.90;4.50;;;27.10;1.00;;;;;;5090590;28;20433;-58
2022/08/30 10:01:40;;;;;;;6.40;4.53;;;27.00;1.00;;;;;;5091769;28;20437;-57
2022/08/30 10:04:18;;;;;;;6.50;5.20;;;27.20;1.00;;;;;;5092610;28;20535;-56
2022/08/30 10:06:55;;;;;;;5.50;5.00;;;26.60;1.00;;;;;;5093219;28;20411;-57
2022/08/30 10:09:24;;;;;;;9.20;5.43;;;25.90;1.00;;;;;;5093134;28;20439;-57
2022/08/30 10:11:55;;;;;;;5.97;5.30;;;25.40;1.00;;;;;;5092643;28;20488;-58
2022/08/30 10:14:44;;;;;;;5.50;5.00;;;25.00;1.00;;;;;;5090472;28;20794;-55
2022/08/30 10:17:37;;;;;;;5.30;4.57;;;24.30;1.00;;;;;;5074286;28;20475;-57
2022/08/30 10:20:32;;;;;;;6.63;4.37;;;23.90;1.00;;;;;;5079333;28;20416;-57
2022/08/30 10:22:57;;;;;;;5.43;3.97;;;23.70;1.00;;;;;;5091117;28;20719;-57
2022/08/30 10:25:38;;;;;;;4.00;3.60;;;23.70;1.00;;;;;;5092551;28;20546;-57
2022/08/30 10:28:13;;;;;;;4.93;4.43;;;23.50;1.00;;;;;;5092149;28;20589;-56
2022/08/30 10:30:45;;;;;;;4.47;4.07;;;23.60;1.00;;;;;;5090978;28;20450;-57
2022/08/30 10:33:19;;;;;;;6.07;3.97;;;23.60;1.00;;;;;;5092616;28;20479;-57
2022/08/30 10:35:49;;;;;;;4.20;3.77;;;23.70;1.00;;;;;;5092704;28;20432;-57
2022/08/30 10:38:34;;;;;;;4.70;4.07;;;23.80;1.00;;;;;;5092491;28;20436;-57
2022/08/30 10:41:18;;;;;;;4.70;4.03;;;23.90;1.00;;;;;;5088237;28;20434;-57
2022/08/30 10:44:03;;;;;;;4.53;3.27;;;24.40;1.00;;;;;;5092289;28;20489;-56
2022/08/30 10:46:56;;;;;;;3.53;3.23;;;24.80;1.00;;;;;;5090656;28;21013;-56
2022/08/30 10:49:25;;;;;;;4.03;3.63;;;25.30;1.00;;;;;;5092041;28;20813;-57
2022/08/30 10:52:11;;;;;;;3.60;3.30;;;25.60;1.00;;;;;;5091417;28;20435;-57
2022/08/30 10:54:49;;;;;;;4.90;3.27;;;26.00;1.00;;;;;;5090903;28;20429;-57
2022/08/30 10:57:16;;;;;;;3.40;3.20;;;26.50;1.00;;;;;;5092311;28;20872;-58
2022/08/30 10:59:47;;;;;;;3.43;3.03;;;27.00;1.00;;;;;;5092041;28;20747;-56
2022/08/30 11:02:50;;;;;;;3.57;3.37;;;27.60;1.00;;;;;;5072923;28;20444;-57
2022/08/30 11:05:24;;;;;;;4.07;3.67;;;28.00;1.00;;;;;;5091854;28;20927;-58
2022/08/30 11:08:16;;;;;;;16.50;3.40;;;28.30;1.00;;;;;;5091895;28;20409;-57
2022/08/30 11:11:19;;;;;;;3.53;3.23;;;28.60;1.00;;;;;;5090805;28;20834;-56
2022/08/30 11:13:46;;;;;;;4.57;3.27;;;28.70;1.00;;;;;;5091705;28;20576;-58
2022/08/30 11:16:15;;;;;;;3.33;3.03;;;28.80;1.00;;;;;;5090635;28;20593;-57
2022/08/30 11:18:50;;;;;;;4.07;3.27;;;28.90;1.00;;;;;;5090661;28;20519;-57
2022/08/30 11:21:24;;;;;;;4.00;3.40;;;28.80;1.00;;;;;;5091429;28;20455;-55
2022/08/30 11:24:22;;;;;;;3.03;2.80;;;28.50;1.00;;;;;;5091665;28;20408;-57
2022/08/30 11:26:48;;;;;;;3.40;3.10;;;27.80;1.00;;;;;;5091057;28;20449;-57
2022/08/30 11:29:26;;;;;;;6.40;3.40;;;27.30;1.00;;;;;;5091918;28;20436;-56
2022/08/30 11:31:53;;;;;;;4.23;3.83;;;27.00;1.00;;;;;;5091444;28;20629;-56
2022/08/30 11:34:43;;;;;;;3.67;3.10;;;26.70;1.00;;;;;;5091476;28;20524;-56
2022/08/30 11:37:10;;;;;;;3.53;3.23;;;26.50;1.00;;;;;;5090653;28;20936;-55
2022/08/30 11:39:43;;;;;;;4.73;3.07;;;26.40;1.00;;;;;;5091235;28;20758;-57
2022/08/30 11:42:28;;;;;;;2.77;2.53;;;26.20;1.00;;;;;;5091302;28;21026;-56
2022/08/30 11:45:23;;;;;;;4.33;2.90;;;26.10;1.00;;;;;;5090636;28;20432;-56
2022/08/30 11:47:57;;;;;;;3.70;3.40;;;26.20;1.00;;;;;;5089815;28;20446;-57
2022/08/30 11:50:54;;;;;;;4.40;3.73;;;26.30;1.00;;;;;;5090751;28;20394;-56
2022/08/30 11:53:35;;;;;;;3.20;2.90;;;26.40;1.00;;;;;;5090811;28;20445;-57
2022/08/30 11:56:24;;;;;;;4.03;3.73;;;26.70;1.00;;;;;;5090666;28;20452;-57
2022/08/30 11:59:37;;;;;;;3.63;2.97;;;26.50;1.00;;;;;;5089886;28;20936;-58
2022/08/30 12:02:05;;;;;;;3.27;2.97;;;26.70;1.00;;;;;;5090492;28;20400;-58
2022/08/30 12:04:45;;;;;;;4.00;3.43;;;26.10;1.00;;;;;;5090881;28;20425;-58
2022/08/30 12:07:50;;;;;;;3.63;2.70;;;26.10;1.00;;;;;;5090376;28;20446;-58
2022/08/30 12:10:40;;;;;;;3.67;3.37;;;26.30;1.00;;;;;;5090674;28;20769;-57
2022/08/30 12:13:06;;;;;;;3.67;3.20;;;26.70;1.00;;;;;;5090675;28;20962;-57
2022/08/30 12:16:00;;;;;;;3.40;3.10;;;27.30;1.00;;;;;;5088698;28;20438;-57
2022/08/30 12:18:32;;;;;;;4.70;3.10;;;27.50;1.00;;;;;;5090750;28;20926;-57
2022/08/30 12:21:28;;;;;;;3.70;3.10;;;27.60;1.00;;;;;;5090175;28;20427;-57
2022/08/30 12:24:15;;;;;;;4.10;3.80;;;26.80;1.00;;;;;;5080557;28;21031;-58
2022/08/30 12:26:45;;;;;;;4.47;4.07;;;26.00;1.00;;;;;;5090319;28;20418;-56
2022/08/30 12:29:29;;;;;;;4.23;3.83;;;25.40;1.00;;;;;;5090511;28;20437;-57
2022/08/30 12:31:58;;;;;;;4.57;4.20;;;24.80;1.00;;;;;;5090582;28;20475;-57
2022/08/30 12:34:50;;;;;;;4.67;4.27;;;24.60;1.00;;;;;;5089627;28;20523;-56
2022/08/30 12:37:30;;;;;;;4.77;4.00;;;24.60;1.00;;;;;;5090156;28;20691;-56
2022/08/30 12:40:13;;;;;;;4.53;4.13;;;24.70;1.00;;;;;;5089473;28;20464;-56
2022/08/30 12:42:48;;;;;;;6.10;4.00;;;24.60;1.00;;;;;;5089748;28;20549;-55
2022/08/30 12:45:16;;;;;;;4.87;4.47;;;24.60;1.00;;;;;;5088434;28;20419;-56
2022/08/30 12:47:49;;;;;;;4.83;4.27;;;24.70;1.00;;;;;;5071603;28;20423;-56
2022/08/30 12:50:29;;;;;;;5.43;3.97;;;24.60;1.00;;;;;;5089051;28;20404;-56
2022/08/30 12:53:05;;;;;;;5.60;5.10;;;24.70;1.00;;;;;;5089869;28;20950;-57
2022/08/30 12:55:35;;;;;;;4.73;4.00;;;24.60;1.00;;;;;;5089961;28;20425;-57
2022/08/30 12:58:08;;;;;;;4.37;3.97;;;24.70;1.00;;;;;;5089751;28;20407;-55
2022/08/30 13:00:41;;;;;;;4.80;4.27;;;24.60;1.00;;;;;;5089664;28;20440;-56
2022/08/30 13:03:22;;;;;;;5.10;4.13;;;24.70;1.00;;;;;;5090063;28;20439;-56
2022/08/30 13:05:49;;;;;;;7.77;5.67;;;25.00;1.00;;;;;;5088551;28;20444;-57
2022/08/30 13:08:20;;;;;;;5.00;4.47;;;25.30;1.00;;;;;;5089854;28;20443;-57
2022/08/30 13:10:53;;;;;;;5.67;4.37;;;25.40;1.00;;;;;;5089809;28;20435;-55
2022/08/30 13:13:36;;;;;;;5.23;4.83;;;25.60;1.00;;;;;;5087618;28;20423;-55
2022/08/30 13:16:25;;;;;;;4.70;4.23;;;25.90;1.00;;;;;;5088776;28;20445;-56
2022/08/30 13:19:28;;;;;;;4.80;4.30;;;26.20;1.00;;;;;;5089273;28;20425;-55
2022/08/30 13:21:56;;;;;;;5.43;4.20;;;26.30;1.00;;;;;;5089620;28;20993;-56
2022/08/30 13:24:22;;;;;;;4.33;3.97;;;26.30;1.00;;;;;;5089948;28;20536;-56
2022/08/30 13:26:48;;;;;;;3.93;3.63;;;26.30;1.00;;;;;;5089444;28;20428;-56